createdAt,value
2022-07-25T00:02:01.807Z,95405.75
2022-07-25T00:04:29.937Z,95397.44
2022-07-25T00:06:57.715Z,95397.03
2022-07-25T00:09:25.428Z,95386.53
2022-07-25T00:11:54.562Z,95390.00
2022-07-25T00:14:22.332Z,95382.53
2022-07-25T00:16:50.080Z,95385.78
2022-07-25T00:19:18.190Z,95381.28
2022-07-25T00:21:46.011Z,95378.19
2022-07-25T00:24:13.754Z,95380.94
2022-07-25T00:26:41.546Z,95374.19
2022-07-25T00:29:10.786Z,95372.72
2022-07-25T00:31:38.739Z,95371.53
2022-07-25T00:34:06.851Z,95368.53
2022-07-25T00:36:34.724Z,95374.34
2022-07-25T00:39:02.522Z,95366.78
2022-07-25T00:41:30.221Z,95363.09
2022-07-25T00:43:58.071Z,95368.25
2022-07-25T00:46:27.148Z,95361.28
2022-07-25T00:48:55.507Z,95364.16
2022-07-25T00:51:23.868Z,95358.09
2022-07-25T00:53:51.592Z,95359.94
2022-07-25T00:56:19.733Z,95356.09
2022-07-25T00:58:47.596Z,95358.97
2022-07-25T01:01:15.761Z,95353.28
2022-07-25T01:03:44.890Z,95356.38
2022-07-25T01:06:13.181Z,95347.34
2022-07-25T01:08:41.087Z,95357.00
2022-07-25T01:11:10.723Z,95349.44
2022-07-25T01:13:38.495Z,95352.69
2022-07-25T01:16:07.073Z,95354.63
2022-07-25T01:18:35.020Z,95351.50
2022-07-25T01:21:04.355Z,95346.00
2022-07-25T01:23:32.198Z,95355.34
2022-07-25T01:26:00.101Z,95344.34
2022-07-25T01:28:28.068Z,95348.25
2022-07-25T01:30:55.833Z,95340.06
2022-07-25T01:33:24.258Z,95340.56
2022-07-25T01:35:52.344Z,95342.63
2022-07-25T01:38:21.430Z,95337.38
2022-07-25T01:40:49.229Z,95333.88
2022-07-25T01:43:17.031Z,95335.53
2022-07-25T01:45:44.742Z,95331.88
2022-07-25T01:48:12.498Z,95334.75
2022-07-25T01:50:40.258Z,95325.31
2022-07-25T01:53:08.374Z,95324.88
2022-07-25T01:55:37.608Z,95324.06
2022-07-25T01:58:05.807Z,95322.41
2022-07-25T02:00:35.681Z,95325.91
2022-07-25T02:03:20.961Z,95323.22
2022-07-25T02:05:48.790Z,95317.59
2022-07-25T02:08:16.643Z,95318.84
2022-07-25T02:10:46.143Z,95317.81
2022-07-25T02:13:13.901Z,95315.84
2022-07-25T02:15:41.753Z,95314.47
2022-07-25T02:18:09.509Z,95313.25
2022-07-25T02:20:37.264Z,95303.06
2022-07-25T02:23:05.963Z,95299.78
2022-07-25T02:25:33.980Z,95302.25
2022-07-25T02:28:03.059Z,95296.09
2022-07-25T02:30:30.924Z,95290.34
2022-07-25T02:32:58.878Z,95296.91
2022-07-25T02:35:26.697Z,95295.75
2022-07-25T02:37:54.422Z,95300.59
2022-07-25T02:40:22.127Z,95294.75
2022-07-25T02:42:49.874Z,95287.81
2022-07-25T02:45:19.083Z,95293.31
2022-07-25T02:47:46.818Z,95289.53
2022-07-25T02:50:15.201Z,95289.16
2022-07-25T02:52:43.107Z,95299.41
2022-07-25T02:55:12.103Z,95293.28
2022-07-25T02:57:40.007Z,95296.22
2022-07-25T03:00:09.036Z,95296.59
2022-07-25T03:02:38.256Z,95304.59
2022-07-25T03:05:08.216Z,95296.88
2022-07-25T03:07:36.073Z,95299.34
2022-07-25T03:10:08.893Z,95300.59
2022-07-25T03:12:39.737Z,95303.28
2022-07-25T03:15:08.451Z,95301.00
2022-07-25T03:17:36.310Z,95295.91
2022-07-25T03:20:06.975Z,95292.44
2022-07-25T03:22:35.072Z,95301.69
2022-07-25T03:25:03.132Z,95301.19
2022-07-25T03:27:30.939Z,95302.25
2022-07-25T03:29:59.807Z,95300.88
2022-07-25T03:32:27.650Z,95309.50
2022-07-25T03:34:55.405Z,95298.06
2022-07-25T03:37:24.465Z,95302.13
2022-07-25T03:39:52.220Z,95290.28
2022-07-25T03:42:24.959Z,95289.69
2022-07-25T03:44:54.263Z,95288.41
2022-07-25T03:47:22.043Z,95289.19
2022-07-25T03:49:49.807Z,95286.72
2022-07-25T03:52:17.490Z,95287.31
2022-07-25T03:54:46.662Z,95284.66
2022-07-25T03:57:14.396Z,95285.28
2022-07-25T03:59:42.119Z,95281.38
2022-07-25T04:02:09.925Z,95285.72
2022-07-25T04:04:37.677Z,95287.19
2022-07-25T04:07:05.494Z,95288.59
2022-07-25T04:09:33.470Z,95287.00
2022-07-25T04:12:02.934Z,95294.97
2022-07-25T04:14:30.705Z,95287.84
2022-07-25T04:16:58.439Z,95285.19
2022-07-25T04:19:26.318Z,95289.91
2022-07-25T04:21:56.801Z,95290.97
2022-07-25T04:24:24.552Z,95283.63
2022-07-25T04:26:52.361Z,95276.31
2022-07-25T04:29:21.496Z,95276.31
2022-07-25T04:31:49.339Z,95266.28
2022-07-25T04:34:17.115Z,95268.69
2022-07-25T04:36:44.822Z,95272.69
2022-07-25T04:39:13.158Z,95274.25
2022-07-25T04:41:40.836Z,95263.69
2022-07-25T04:44:09.251Z,95267.44
2022-07-25T04:46:38.679Z,95270.22
2022-07-25T04:49:06.506Z,95269.53
2022-07-25T04:51:34.297Z,95267.13
2022-07-25T04:54:02.167Z,95267.13
2022-07-25T04:56:29.867Z,95266.94
2022-07-25T04:59:00.591Z,95267.75
2022-07-25T05:01:30.994Z,95260.63
2022-07-25T05:04:01.255Z,95256.31
2022-07-25T05:06:29.143Z,95252.63
2022-07-25T05:08:57.271Z,95257.50
2022-07-25T05:11:24.972Z,95262.19
2022-07-25T05:13:53.010Z,95253.78
2022-07-25T05:16:20.801Z,95259.13
2022-07-25T05:18:48.882Z,95246.53
2022-07-25T05:21:17.922Z,95251.84
2022-07-25T05:23:45.698Z,95257.34
2022-07-25T05:26:13.547Z,95250.56
2022-07-25T05:28:41.358Z,95248.72
2022-07-25T05:31:09.222Z,95253.16
2022-07-25T05:33:37.096Z,95257.00
2022-07-25T05:36:05.424Z,95255.53
2022-07-25T05:38:34.582Z,95258.41
2022-07-25T05:41:02.312Z,95250.44
2022-07-25T05:43:30.106Z,95252.88
2022-07-25T05:46:02.203Z,95254.97
2022-07-25T05:48:30.048Z,95251.88
2022-07-25T05:50:59.334Z,95253.66
2022-07-25T05:53:27.268Z,95246.09
2022-07-25T05:55:56.406Z,95252.44
2022-07-25T05:58:29.449Z,95251.19
2022-07-25T06:00:58.642Z,95249.13
2022-07-25T06:03:26.535Z,95245.47
2022-07-25T06:05:56.087Z,95247.09
2022-07-25T06:08:23.965Z,95252.16
2022-07-25T06:10:52.692Z,95245.44
2022-07-25T06:13:21.751Z,95250.69
2022-07-25T06:15:51.532Z,95248.03
2022-07-25T06:18:19.303Z,95239.22
2022-07-25T06:20:47.031Z,95243.97
2022-07-25T06:23:15.053Z,95246.13
2022-07-25T06:25:42.973Z,95242.69
2022-07-25T06:28:18.097Z,95246.25
2022-07-25T06:30:48.184Z,95250.50
2022-07-25T06:33:15.887Z,95235.53
2022-07-25T06:35:43.877Z,95239.19
2022-07-25T06:38:11.570Z,95240.16
2022-07-25T06:40:39.295Z,95239.44
2022-07-25T06:43:06.963Z,95233.59
2022-07-25T06:45:34.960Z,95237.53
2022-07-25T06:48:04.215Z,95233.44
2022-07-25T06:50:32.333Z,95228.00
2022-07-25T06:53:00.195Z,95218.66
2022-07-25T06:55:27.984Z,95221.88
2022-07-25T06:57:55.929Z,95223.88
2022-07-25T07:00:24.038Z,95218.41
2022-07-25T07:02:56.116Z,95221.75
2022-07-25T07:05:27.107Z,95223.59
2022-07-25T07:07:54.854Z,95216.50
2022-07-25T07:10:23.323Z,95215.69
2022-07-25T07:12:51.771Z,95210.94
2022-07-25T07:15:19.975Z,95200.31
2022-07-25T07:17:47.654Z,95201.03
2022-07-25T07:20:15.381Z,95201.69
2022-07-25T07:22:48.810Z,95202.00
2022-07-25T07:25:17.893Z,95204.97
2022-07-25T07:27:48.302Z,95203.81
2022-07-25T07:30:20.839Z,95192.97
2022-07-25T07:32:52.131Z,95192.22
2022-07-25T07:35:20.289Z,95196.97
2022-07-25T07:37:50.077Z,95200.97
2022-07-25T07:40:18.220Z,95204.94
2022-07-25T07:42:47.975Z,95196.28
2022-07-25T07:45:17.866Z,95190.47
2022-07-25T07:47:48.007Z,95202.81
2022-07-25T07:50:17.573Z,95193.47
2022-07-25T07:52:45.870Z,95191.88
2022-07-25T07:55:34.236Z,95187.13
2022-07-25T07:58:02.471Z,95187.69
2022-07-25T08:00:31.672Z,95193.53
2022-07-25T08:03:00.545Z,95195.84
2022-07-25T08:05:30.190Z,95194.34
2022-07-25T08:08:00.032Z,95196.59
2022-07-25T08:10:31.215Z,95194.09
2022-07-25T08:13:00.019Z,95198.31
2022-07-25T08:15:29.981Z,95198.44
2022-07-25T08:17:57.733Z,95186.13
2022-07-25T08:20:37.993Z,95192.63
2022-07-25T08:23:06.476Z,95191.00
2022-07-25T08:25:36.633Z,95188.88
2022-07-25T08:28:06.286Z,95187.13
2022-07-25T08:30:34.269Z,95175.19
2022-07-25T08:33:04.519Z,95173.25
2022-07-25T08:35:33.731Z,95178.09
2022-07-25T08:38:04.568Z,95175.34
2022-07-25T08:40:33.809Z,95173.16
2022-07-25T08:43:02.919Z,95172.13
2022-07-25T08:45:30.857Z,95165.63
2022-07-25T08:47:58.647Z,95172.28
2022-07-25T08:50:28.894Z,95166.13
2022-07-25T08:53:23.082Z,95164.41
2022-07-25T08:55:45.853Z,95159.41
2022-07-25T08:58:16.492Z,95165.44
2022-07-25T09:00:44.923Z,95165.44
2022-07-25T09:03:13.425Z,95165.69
2022-07-25T09:05:41.576Z,95161.94
2022-07-25T09:08:11.033Z,95153.03
2022-07-25T09:10:42.431Z,95150.25
2022-07-25T09:13:14.153Z,95148.16
2022-07-25T09:15:47.286Z,95153.03
2022-07-25T09:18:17.184Z,95141.97
2022-07-25T09:20:46.474Z,95147.91
2022-07-25T09:23:16.105Z,95144.56
2022-07-25T09:25:44.219Z,95146.78
2022-07-25T09:28:19.544Z,95141.53
2022-07-25T09:31:03.148Z,95143.88
2022-07-25T09:33:31.293Z,95138.72
2022-07-25T09:35:59.063Z,95145.69
2022-07-25T09:38:26.779Z,95135.28
2022-07-25T09:40:56.276Z,95133.81
2022-07-25T09:43:24.612Z,95132.44
2022-07-25T09:45:52.846Z,95133.91
2022-07-25T09:48:21.931Z,95131.47
2022-07-25T09:50:50.534Z,95133.59
2022-07-25T09:53:19.932Z,95123.53
2022-07-25T09:55:47.735Z,95124.63
2022-07-25T09:58:18.253Z,95132.88
2022-07-25T10:00:46.704Z,95132.72
2022-07-25T10:03:25.870Z,95120.22
2022-07-25T10:06:09.157Z,95118.13
2022-07-25T10:08:38.418Z,95115.75
2022-07-25T10:11:09.133Z,95122.75
2022-07-25T10:13:39.202Z,95116.66
2022-07-25T10:16:17.399Z,95114.47
2022-07-25T10:18:51.659Z,95106.34
2022-07-25T10:21:28.323Z,95117.84
2022-07-25T10:24:02.402Z,95118.28
2022-07-25T10:26:31.294Z,95107.69
2022-07-25T10:28:59.833Z,95113.78
2022-07-25T10:31:37.647Z,95099.53
2022-07-25T10:34:10.899Z,95092.91
2022-07-25T10:36:44.362Z,95090.34
2022-07-25T10:39:14.877Z,95093.97
2022-07-25T10:41:43.992Z,95103.16
2022-07-25T10:44:13.961Z,95096.53
2022-07-25T10:46:44.537Z,95088.56
2022-07-25T10:49:20.576Z,95089.94
2022-07-25T10:51:58.159Z,95061.09
2022-07-25T10:54:26.267Z,95082.00
2022-07-25T10:56:57.228Z,95070.22
2022-07-25T10:59:33.812Z,95068.41
2022-07-25T11:02:01.879Z,95082.19
2022-07-25T11:04:31.835Z,95080.38
2022-07-25T11:07:09.646Z,95079.28
2022-07-25T11:09:38.130Z,95064.53
2022-07-25T11:12:09.649Z,95065.19
2022-07-25T11:14:41.414Z,95071.72
2022-07-25T11:17:15.248Z,95071.66
2022-07-25T11:19:46.221Z,95069.34
2022-07-25T11:22:14.258Z,95071.19
2022-07-25T11:24:43.880Z,95063.00
2022-07-25T11:27:13.287Z,95063.47
2022-07-25T11:29:42.076Z,95060.28
2022-07-25T11:32:14.099Z,95064.41
2022-07-25T11:34:48.444Z,95052.28
2022-07-25T11:37:19.036Z,95053.63
2022-07-25T11:39:48.850Z,95036.47
2022-07-25T11:42:18.557Z,95050.34
2022-07-25T11:44:48.450Z,95042.59
2022-07-25T11:47:29.804Z,95041.94
2022-07-25T11:50:02.934Z,95043.25
2022-07-25T11:52:33.034Z,95042.50
2022-07-25T11:55:03.269Z,95027.72
2022-07-25T11:57:33.516Z,95042.63
2022-07-25T12:00:02.817Z,95038.59
2022-07-25T12:02:32.242Z,95040.88
2022-07-25T12:05:02.891Z,95035.28
2022-07-25T12:07:41.649Z,95038.91
2022-07-25T12:10:11.547Z,95037.63
2022-07-25T12:12:44.197Z,95040.28
2022-07-25T12:15:13.917Z,95032.59
2022-07-25T12:17:43.142Z,95031.22
2022-07-25T12:20:20.609Z,95029.31
2022-07-25T12:22:49.471Z,95015.94
2022-07-25T12:25:17.392Z,95022.06
2022-07-25T12:27:45.331Z,95026.75
2022-07-25T12:30:13.824Z,95017.56
2022-07-25T12:32:42.434Z,95023.66
2022-07-25T12:35:12.731Z,95028.44
2022-07-25T12:37:43.156Z,95002.50
2022-07-25T12:40:12.813Z,95025.47
2022-07-25T12:42:40.555Z,95025.59
2022-07-25T12:45:09.381Z,95010.25
2022-07-25T12:47:37.550Z,95012.63
2022-07-25T12:50:06.860Z,94999.03
2022-07-25T12:52:34.860Z,94998.03
2022-07-25T12:55:04.006Z,94997.44
2022-07-25T12:57:31.749Z,95010.78
2022-07-25T12:59:59.507Z,95001.63
2022-07-25T13:02:27.393Z,94997.00
2022-07-25T13:04:55.183Z,94987.03
2022-07-25T13:07:22.984Z,94993.91
2022-07-25T13:09:50.766Z,94979.47
2022-07-25T13:12:20.674Z,94986.78
2022-07-25T13:14:48.989Z,94980.72
2022-07-25T13:17:16.668Z,94997.94
2022-07-25T13:19:44.507Z,94985.06
2022-07-25T13:22:12.632Z,94982.31
2022-07-25T13:24:40.327Z,94982.47
2022-07-25T13:27:09.638Z,94980.94
2022-07-25T13:29:38.868Z,94965.53
2022-07-25T13:32:07.341Z,94976.28
2022-07-25T13:34:35.112Z,94974.53
2022-07-25T13:37:03.028Z,94956.69
2022-07-25T13:39:30.910Z,94966.28
2022-07-25T13:41:58.659Z,94969.03
2022-07-25T13:44:26.451Z,94960.06
2022-07-25T13:46:55.649Z,94965.28
2022-07-25T13:49:23.595Z,94959.06
2022-07-25T13:51:51.473Z,94952.06
2022-07-25T13:54:19.216Z,94955.06
2022-07-25T13:56:47.566Z,94954.00
2022-07-25T13:59:21.002Z,94959.75
2022-07-25T14:01:50.011Z,94937.97
2022-07-25T14:04:19.756Z,94944.50
2022-07-25T14:06:51.793Z,94949.66
2022-07-25T14:09:20.622Z,94929.22
2022-07-25T14:11:48.932Z,94938.38
2022-07-25T14:14:17.116Z,94940.13
2022-07-25T14:16:45.198Z,94936.22
2022-07-25T14:19:13.086Z,94911.84
2022-07-25T14:21:42.089Z,94925.91
2022-07-25T14:24:10.203Z,94925.31
2022-07-25T14:26:38.223Z,94918.00
2022-07-25T14:29:11.063Z,94923.91
2022-07-25T14:31:40.588Z,94912.72
2022-07-25T14:34:08.735Z,94913.38
2022-07-25T14:36:36.938Z,94908.66
2022-07-25T14:39:06.354Z,94900.16
2022-07-25T14:41:34.380Z,94898.38
2022-07-25T14:44:02.142Z,94907.34
2022-07-25T14:46:30.364Z,94901.84
2022-07-25T14:48:58.478Z,94898.38
2022-07-25T14:51:26.218Z,94904.00
2022-07-25T14:53:54.030Z,94892.50
2022-07-25T14:56:23.253Z,94888.56
2022-07-25T14:58:51.045Z,94882.84
2022-07-25T15:01:20.907Z,94892.53
2022-07-25T15:03:49.113Z,94882.63
2022-07-25T15:06:17.382Z,94885.09
2022-07-25T15:08:45.465Z,94886.84
2022-07-25T15:11:13.251Z,94885.56
2022-07-25T15:13:42.348Z,94887.72
2022-07-25T15:16:13.835Z,94881.19
2022-07-25T15:19:05.296Z,94866.53
2022-07-25T15:21:29.441Z,94859.00
2022-07-25T15:23:57.477Z,94848.03
2022-07-25T15:26:25.221Z,94850.88
2022-07-25T15:28:54.748Z,94863.84
2022-07-25T15:31:24.531Z,94856.66
2022-07-25T15:33:54.334Z,94858.63
2022-07-25T15:39:07.910Z,94851.91
2022-07-25T15:41:36.426Z,94840.44
2022-07-25T15:44:06.087Z,94842.16
2022-07-25T15:46:34.253Z,94835.88
2022-07-25T15:49:05.627Z,94837.63
2022-07-25T15:51:33.748Z,94830.66
2022-07-25T15:54:01.497Z,94823.00
2022-07-25T15:56:29.410Z,94822.56
2022-07-25T15:58:57.455Z,94820.38
2022-07-25T16:01:26.602Z,94830.47
2022-07-25T16:03:55.624Z,94834.16
2022-07-25T16:06:23.492Z,94832.91
2022-07-25T16:08:59.439Z,94822.25
2022-07-25T16:11:38.766Z,94825.03
2022-07-25T16:14:06.990Z,94800.47
2022-07-25T16:16:36.318Z,94815.59
2022-07-25T16:19:19.985Z,94807.44
2022-07-25T16:21:47.733Z,94809.72
2022-07-25T16:24:15.498Z,94813.19
2022-07-25T16:26:43.351Z,94813.13
2022-07-25T16:29:11.407Z,94810.72
2022-07-25T16:31:41.454Z,94808.97
2022-07-25T16:34:09.293Z,94796.41
2022-07-25T16:36:37.495Z,94802.66
2022-07-25T16:39:05.896Z,94801.13
2022-07-25T16:41:33.982Z,94795.22
2022-07-25T16:44:01.767Z,94792.88
2022-07-25T16:46:29.546Z,94803.59
2022-07-25T16:48:58.717Z,94798.47
2022-07-25T16:51:26.538Z,94799.56
2022-07-25T17:01:31.212Z,94785.38
2022-07-25T17:12:39.561Z,94794.25
2022-07-25T17:31:22.616Z,94811.31
2022-07-25T17:37:45.549Z,94815.91
2022-07-25T17:40:19.662Z,94807.84
2022-07-25T17:42:59.094Z,94810.28
2022-07-25T17:49:29.479Z,94813.13
2022-07-25T18:07:02.953Z,94811.38
2022-07-25T18:13:29.212Z,94835.94
2022-07-25T18:16:16.914Z,94850.13
2022-07-25T18:18:44.771Z,94859.41
2022-07-25T18:21:12.578Z,94859.09
2022-07-25T18:23:40.373Z,94872.56
2022-07-25T18:26:08.115Z,94889.91
2022-07-25T18:28:36.687Z,94900.69
2022-07-25T18:31:04.589Z,94907.50
2022-07-25T18:33:33.941Z,94915.84
2022-07-25T18:36:06.939Z,94923.56
2022-07-25T18:38:35.552Z,94926.41
2022-07-25T18:41:27.557Z,94916.00
2022-07-25T18:43:52.862Z,94921.97
2022-07-25T18:46:21.091Z,94915.59
2022-07-25T18:48:50.431Z,94922.63
2022-07-25T18:51:18.329Z,94918.94
2022-07-25T18:53:48.660Z,94924.63
2022-07-25T18:56:17.529Z,94920.63
2022-07-25T18:58:45.707Z,94917.69
2022-07-25T19:01:13.650Z,94924.72
2022-07-25T19:03:41.450Z,94926.59
2022-07-25T19:06:10.969Z,94927.94
2022-07-25T19:08:39.247Z,94925.53
2022-07-25T19:11:08.483Z,94932.78
2022-07-25T19:13:49.571Z,94929.59
2022-07-25T19:16:18.289Z,94929.03
2022-07-25T19:18:46.141Z,94927.13
2022-07-25T19:21:17.221Z,94925.25
2022-07-25T19:24:10.924Z,94931.69
2022-07-25T19:27:07.860Z,94930.34
2022-07-25T19:30:01.031Z,94934.91
2022-07-25T19:33:11.086Z,94929.25
2022-07-25T19:35:39.236Z,94931.13
2022-07-25T19:38:08.664Z,94925.44
2022-07-25T19:40:40.321Z,94925.94
2022-07-25T19:43:08.147Z,94918.16
2022-07-25T19:45:36.636Z,94925.16
2022-07-25T19:48:07.000Z,94924.59
2022-07-25T19:50:35.266Z,94932.63
2022-07-25T19:53:03.051Z,94954.16
2022-07-25T19:55:32.187Z,94956.84
2022-07-25T19:57:59.983Z,94963.50
2022-07-25T20:00:27.728Z,94964.06
2022-07-25T20:02:55.618Z,94944.97
2022-07-25T20:05:23.470Z,94944.16
2022-07-25T20:07:51.937Z,94951.41
2022-07-25T20:10:20.058Z,94949.22
2022-07-25T20:12:49.296Z,94962.06
2022-07-25T20:15:17.085Z,94973.00
2022-07-25T20:17:44.853Z,94973.56
2022-07-25T20:20:13.648Z,94976.06
2022-07-25T20:22:42.002Z,94985.97
2022-07-25T20:25:13.884Z,94981.53
2022-07-25T20:27:41.875Z,94997.06
2022-07-25T20:30:13.401Z,95007.56
2022-07-25T20:32:41.231Z,95025.97
2022-07-25T20:35:09.531Z,95050.34
2022-07-25T20:37:37.337Z,95062.03
2022-07-25T20:40:06.396Z,95067.94
2022-07-25T20:42:37.323Z,95063.47
2022-07-25T20:45:05.821Z,95040.13
2022-07-25T20:47:35.200Z,95039.75
2022-07-25T20:50:03.308Z,95044.31
2022-07-25T20:52:33.235Z,95045.16
2022-07-25T20:55:00.975Z,95035.03
2022-07-25T20:57:34.374Z,95044.88
2022-07-25T21:00:02.112Z,95081.47
2022-07-25T21:02:29.897Z,95125.47
2022-07-25T21:04:59.233Z,95148.41
2022-07-25T21:07:27.202Z,95135.19
2022-07-25T21:09:54.930Z,95114.72
2022-07-25T21:12:22.692Z,95117.81
2022-07-25T21:14:50.960Z,95140.38
2022-07-25T21:17:18.707Z,95153.81
2022-07-25T21:19:46.554Z,95189.59
2022-07-25T21:22:15.820Z,95217.72
2022-07-25T21:24:43.661Z,95250.16
2022-07-25T21:27:11.439Z,95263.50
2022-07-25T21:29:39.266Z,95266.25
2022-07-25T21:32:09.016Z,95273.31
2022-07-25T21:34:36.959Z,95314.31
2022-07-25T21:37:04.772Z,95320.22
2022-07-25T21:39:34.232Z,95308.13
2022-07-25T21:42:02.584Z,95293.78
2022-07-25T21:44:32.523Z,95257.28
2022-07-25T21:47:00.612Z,95242.16
2022-07-25T21:49:51.586Z,95249.41
2022-07-25T21:52:29.975Z,95241.41
2022-07-25T21:55:05.614Z,95263.41
2022-07-25T21:57:33.542Z,95299.28
2022-07-25T22:00:01.350Z,95341.44
2022-07-25T22:02:31.225Z,95355.28
2022-07-25T22:04:58.849Z,95377.63
2022-07-25T22:07:26.959Z,95400.13
2022-07-25T22:09:54.690Z,95388.88
2022-07-25T22:12:23.833Z,95386.72
2022-07-25T22:14:51.567Z,95376.84
2022-07-25T22:17:19.314Z,95368.34
2022-07-25T22:19:47.022Z,95376.56
2022-07-25T22:22:14.925Z,95399.09
2022-07-25T22:24:46.403Z,95412.84
2022-07-25T22:27:14.976Z,95434.63
2022-07-25T22:29:44.139Z,95447.50
2022-07-25T22:32:13.460Z,95442.19
2022-07-25T22:34:41.221Z,95436.81
2022-07-25T22:37:08.958Z,95435.53
2022-07-25T22:39:36.713Z,95423.97
2022-07-25T22:42:04.470Z,95404.19
2022-07-25T22:44:32.321Z,95383.34
2022-07-25T22:47:04.042Z,95373.97
2022-07-25T22:49:32.097Z,95381.69
2022-07-25T22:51:59.802Z,95399.47
2022-07-25T22:54:28.563Z,95402.81
2022-07-25T22:56:56.398Z,95413.50
2022-07-25T22:59:24.261Z,95417.38
2022-07-25T23:01:52.049Z,95420.47
2022-07-25T23:04:21.295Z,95415.97
2022-07-25T23:06:49.117Z,95407.34
2022-07-25T23:09:19.791Z,95397.34
2022-07-25T23:11:50.441Z,95405.69
2022-07-25T23:14:18.353Z,95424.50
2022-07-25T23:17:06.137Z,95436.53
2022-07-25T23:19:35.254Z,95438.56
2022-07-25T23:22:03.008Z,95457.19
2022-07-25T23:24:34.376Z,95470.06
2022-07-25T23:27:05.568Z,95469.22
2022-07-25T23:29:33.695Z,95471.03
2022-07-25T23:32:01.472Z,95483.00
2022-07-25T23:34:29.214Z,95420.81
2022-07-25T23:36:58.570Z,95383.06
2022-07-25T23:39:26.640Z,95442.75
2022-07-25T23:41:54.439Z,95464.94
2022-07-25T23:44:22.122Z,95450.69
2022-07-25T23:46:51.990Z,95435.91
2022-07-25T23:49:20.492Z,95440.44
2022-07-25T23:51:48.246Z,95439.25
2022-07-25T23:54:17.528Z,95431.03
2022-07-25T23:56:45.262Z,95431.84
2022-07-25T23:59:16.578Z,95432.00
